createdAt,value
2022-11-10T00:02:08.510Z,12.37
2022-11-10T00:04:54.242Z,12.29
2022-11-10T00:07:39.513Z,12.20
2022-11-10T00:10:24.798Z,12.34
2022-11-10T00:13:10.126Z,12.32
2022-11-10T00:16:16.915Z,12.49
2022-11-10T00:19:02.309Z,12.53
2022-11-10T00:21:47.389Z,12.31
2022-11-10T00:24:32.948Z,12.27
2022-11-10T00:27:18.470Z,12.44
2022-11-10T00:30:05.734Z,12.29
2022-11-10T00:32:51.146Z,12.46
2022-11-10T00:35:36.634Z,12.38
2022-11-10T00:38:22.076Z,12.51
2022-11-10T00:41:07.178Z,12.46
2022-11-10T00:43:52.609Z,12.40
2022-11-10T00:46:37.959Z,12.21
2022-11-10T00:49:23.367Z,12.35
2022-11-10T00:52:08.914Z,12.30
2022-11-10T00:54:53.802Z,12.35
2022-11-10T00:57:39.366Z,12.40
2022-11-10T01:00:24.360Z,12.42
2022-11-10T01:03:17.499Z,12.41
2022-11-10T01:06:11.562Z,12.42
2022-11-10T01:08:56.632Z,12.41
2022-11-10T01:11:41.555Z,12.31
2022-11-10T01:14:26.830Z,12.40
2022-11-10T01:17:12.101Z,12.55
2022-11-10T01:19:57.165Z,12.49
2022-11-10T01:22:42.561Z,12.31
2022-11-10T01:25:28.050Z,12.33
2022-11-10T01:28:13.458Z,12.53
2022-11-10T01:31:04.418Z,12.56
2022-11-10T01:33:49.715Z,12.42
2022-11-10T01:36:34.646Z,12.40
2022-11-10T01:39:20.156Z,12.39
2022-11-10T01:42:05.535Z,12.51
2022-11-10T01:45:24.490Z,12.45
2022-11-10T01:48:14.732Z,12.39
2022-11-10T01:51:09.315Z,12.38
2022-11-10T01:54:06.177Z,12.46
2022-11-10T01:56:53.124Z,12.39
2022-11-10T01:59:49.027Z,12.28
2022-11-10T02:02:55.824Z,12.43
2022-11-10T02:05:43.575Z,12.45
2022-11-10T02:08:29.457Z,12.48
2022-11-10T02:11:14.718Z,12.42
2022-11-10T02:14:00.746Z,12.27
2022-11-10T02:16:46.027Z,12.29
2022-11-10T02:19:40.041Z,12.19
2022-11-10T02:22:25.357Z,12.11
2022-11-10T02:25:13.582Z,12.18
2022-11-10T02:27:59.204Z,12.10
2022-11-10T02:30:44.343Z,11.99
2022-11-10T02:33:30.030Z,12.05
2022-11-10T02:36:15.853Z,12.10
2022-11-10T02:39:01.411Z,12.04
2022-11-10T02:41:46.417Z,11.90
2022-11-10T02:44:31.618Z,11.89
2022-11-10T02:47:16.963Z,11.86
2022-11-10T02:50:02.463Z,11.94
2022-11-10T02:52:47.611Z,11.80
2022-11-10T02:55:33.123Z,11.89
2022-11-10T02:58:18.279Z,11.77
2022-11-10T03:01:05.797Z,11.80
2022-11-10T03:03:51.084Z,11.68
2022-11-10T03:06:36.522Z,11.70
2022-11-10T03:09:21.900Z,11.77
2022-11-10T03:12:07.133Z,11.83
2022-11-10T03:14:52.404Z,11.91
2022-11-10T03:17:37.680Z,11.96
2022-11-10T03:20:23.005Z,11.74
2022-11-10T03:23:08.499Z,11.75
2022-11-10T03:25:53.336Z,11.90
2022-11-10T03:28:39.401Z,11.75
2022-11-10T03:31:24.307Z,11.90
2022-11-10T03:34:09.490Z,11.78
2022-11-10T03:36:54.404Z,11.83
2022-11-10T03:39:40.144Z,11.86
2022-11-10T03:42:25.538Z,11.91
2022-11-10T03:45:11.810Z,11.82
2022-11-10T03:47:57.227Z,11.84
2022-11-10T03:50:42.243Z,11.83
2022-11-10T03:53:27.798Z,11.73
2022-11-10T03:56:13.170Z,11.63
2022-11-10T03:58:58.745Z,11.68
2022-11-10T04:01:44.344Z,11.74
2022-11-10T04:04:48.402Z,11.80
2022-11-10T04:07:52.949Z,11.45
2022-11-10T04:10:38.515Z,11.37
2022-11-10T04:13:42.003Z,11.60
2022-11-10T04:16:27.116Z,11.56
2022-11-10T04:19:12.538Z,11.34
2022-11-10T04:21:57.992Z,11.27
2022-11-10T04:24:43.490Z,11.40
2022-11-10T04:27:28.834Z,11.38
2022-11-10T04:30:13.872Z,11.39
2022-11-10T04:32:59.102Z,11.45
2022-11-10T04:35:44.393Z,11.55
2022-11-10T04:38:29.939Z,11.40
2022-11-10T04:41:16.241Z,11.36
2022-11-10T04:44:01.982Z,11.29
2022-11-10T04:46:47.220Z,11.36
2022-11-10T04:49:32.496Z,11.43
2022-11-10T04:52:18.050Z,11.49
2022-11-10T04:55:03.749Z,11.46
2022-11-10T04:57:49.084Z,11.53
2022-11-10T05:00:35.141Z,11.42
2022-11-10T05:03:20.579Z,11.41
2022-11-10T05:06:06.137Z,11.34
2022-11-10T05:08:51.525Z,11.37
2022-11-10T05:11:36.574Z,11.54
2022-11-10T05:14:21.919Z,11.56
2022-11-10T05:17:07.114Z,11.48
2022-11-10T05:19:52.752Z,11.44
2022-11-10T05:22:37.896Z,11.29
2022-11-10T05:25:22.863Z,11.43
2022-11-10T05:28:10.483Z,11.47
2022-11-10T05:30:55.808Z,11.40
2022-11-10T05:33:41.029Z,11.51
2022-11-10T05:36:26.231Z,11.56
2022-11-10T05:39:11.364Z,11.37
2022-11-10T05:41:56.573Z,11.38
2022-11-10T05:44:41.726Z,11.28
2022-11-10T05:47:27.221Z,11.43
2022-11-10T05:50:12.464Z,11.43
2022-11-10T05:52:57.477Z,11.32
2022-11-10T05:55:42.633Z,11.35
2022-11-10T05:58:28.066Z,11.34
2022-11-10T06:01:13.235Z,11.35
2022-11-10T06:03:58.596Z,11.38
2022-11-10T06:06:43.671Z,11.37
2022-11-10T06:09:28.861Z,11.51
2022-11-10T06:12:15.513Z,11.52
2022-11-10T06:15:00.710Z,11.56
2022-11-10T06:17:46.051Z,11.57
2022-11-10T06:20:32.082Z,11.57
2022-11-10T06:23:17.316Z,11.44
2022-11-10T06:26:02.483Z,11.39
2022-11-10T06:28:47.626Z,11.35
2022-11-10T06:31:32.942Z,11.37
2022-11-10T06:34:18.547Z,11.43
2022-11-10T06:37:03.944Z,11.35
2022-11-10T06:39:49.072Z,11.46
2022-11-10T06:42:34.966Z,11.51
2022-11-10T06:45:20.788Z,11.40
2022-11-10T06:48:12.287Z,11.39
2022-11-10T06:51:01.463Z,11.47
2022-11-10T06:53:47.433Z,11.49
2022-11-10T06:56:32.332Z,11.53
2022-11-10T06:59:17.497Z,11.55
2022-11-10T07:02:02.847Z,11.55
2022-11-10T07:04:50.546Z,11.49
2022-11-10T07:07:35.953Z,11.42
2022-11-10T07:10:21.209Z,11.33
2022-11-10T07:13:06.582Z,11.39
2022-11-10T07:15:52.270Z,11.43
2022-11-10T07:18:37.637Z,11.30
2022-11-10T07:21:22.931Z,11.23
2022-11-10T07:24:08.612Z,11.12
2022-11-10T07:26:54.005Z,11.17
2022-11-10T07:29:39.783Z,11.15
2022-11-10T07:32:25.648Z,11.10
2022-11-10T07:35:11.538Z,11.17
2022-11-10T07:37:58.226Z,11.12
2022-11-10T07:40:43.639Z,11.17
2022-11-10T07:43:28.535Z,11.22
2022-11-10T07:46:14.080Z,11.24
2022-11-10T07:48:59.027Z,11.30
2022-11-10T07:51:44.275Z,11.34
2022-11-10T07:54:29.431Z,11.46
2022-11-10T07:57:14.712Z,11.51
2022-11-10T08:00:00.197Z,11.38
2022-11-10T08:02:45.482Z,11.44
2022-11-10T08:05:31.431Z,11.54
2022-11-10T08:08:16.950Z,11.52
2022-11-10T08:11:01.988Z,11.50
2022-11-10T08:13:47.399Z,11.54
2022-11-10T08:16:33.006Z,11.53
2022-11-10T08:19:18.410Z,11.56
2022-11-10T08:22:03.440Z,11.56
2022-11-10T08:24:48.769Z,11.56
2022-11-10T08:27:34.020Z,11.61
2022-11-10T08:30:19.307Z,11.58
2022-11-10T08:33:07.337Z,11.78
2022-11-10T08:35:52.690Z,11.84
2022-11-10T08:38:38.173Z,11.83
2022-11-10T08:41:23.655Z,11.86
2022-11-10T08:44:11.030Z,12.02
2022-11-10T08:46:56.499Z,11.86
2022-11-10T08:49:41.809Z,11.87
2022-11-10T08:52:27.572Z,11.90
2022-11-10T08:55:13.004Z,11.93
2022-11-10T08:58:00.641Z,12.02
2022-11-10T09:00:46.152Z,12.19
2022-11-10T09:03:31.605Z,12.22
2022-11-10T09:06:16.871Z,12.23
2022-11-10T09:09:01.904Z,12.35
2022-11-10T09:11:47.137Z,12.34
2022-11-10T09:14:33.251Z,12.47
2022-11-10T09:17:18.691Z,12.49
2022-11-10T09:20:05.713Z,12.37
2022-11-10T09:22:50.966Z,12.43
2022-11-10T09:25:36.400Z,12.60
2022-11-10T09:28:23.025Z,12.49
2022-11-10T09:31:08.100Z,12.74
2022-11-10T09:33:53.415Z,12.63
2022-11-10T09:36:40.230Z,12.66
2022-11-10T09:39:25.706Z,12.73
2022-11-10T09:42:29.859Z,12.86
2022-11-10T09:45:39.094Z,12.90
2022-11-10T09:48:35.696Z,12.98
2022-11-10T09:51:24.165Z,12.92
2022-11-10T09:54:40.573Z,13.17
2022-11-10T09:57:27.189Z,13.05
2022-11-10T10:00:16.832Z,13.14
2022-11-10T10:03:04.132Z,13.12
2022-11-10T10:06:12.327Z,13.09
2022-11-10T10:09:24.141Z,13.17
2022-11-10T10:12:55.334Z,13.48
2022-11-10T10:15:40.814Z,13.60
2022-11-10T10:18:36.503Z,13.64
2022-11-10T10:21:36.374Z,13.51
2022-11-10T10:24:27.526Z,13.62
2022-11-10T10:27:21.154Z,13.68
2022-11-10T10:30:18.247Z,13.69
2022-11-10T10:33:16.710Z,13.75
2022-11-10T10:36:09.574Z,13.80
2022-11-10T10:39:00.918Z,13.88
2022-11-10T10:41:46.882Z,13.72
2022-11-10T10:44:31.934Z,13.97
2022-11-10T10:47:17.219Z,13.88
2022-11-10T10:50:26.202Z,14.14
2022-11-10T10:53:17.569Z,14.13
2022-11-10T10:56:22.417Z,14.14
2022-11-10T10:59:20.848Z,14.04
2022-11-10T11:02:26.471Z,14.12
2022-11-10T11:05:19.473Z,14.19
2022-11-10T11:08:05.285Z,14.36
2022-11-10T11:10:50.478Z,14.59
2022-11-10T11:13:35.560Z,14.59
2022-11-10T11:16:20.856Z,14.41
2022-11-10T11:19:08.953Z,14.39
2022-11-10T11:22:04.982Z,14.43
2022-11-10T11:25:01.366Z,14.56
2022-11-10T11:28:05.101Z,14.57
2022-11-10T11:31:05.363Z,14.47
2022-11-10T11:34:21.518Z,14.43
2022-11-10T11:37:19.660Z,14.45
2022-11-10T11:40:32.136Z,14.59
2022-11-10T11:43:40.920Z,14.70
2022-11-10T11:46:59.020Z,14.88
2022-11-10T11:49:59.221Z,14.79
2022-11-10T11:53:15.007Z,14.96
2022-11-10T11:56:32.915Z,15.02
2022-11-10T11:59:39.057Z,15.34
2022-11-10T12:02:39.016Z,15.09
2022-11-10T12:05:30.306Z,14.98
2022-11-10T12:08:18.312Z,15.00
2022-11-10T12:11:21.926Z,14.88
2022-11-10T12:14:38.560Z,14.91
2022-11-10T12:17:43.486Z,14.75
2022-11-10T12:20:46.575Z,14.86
2022-11-10T12:23:31.615Z,14.82
2022-11-10T12:26:19.411Z,14.79
2022-11-10T12:29:37.439Z,15.00
2022-11-10T12:32:52.459Z,15.03
2022-11-10T12:35:42.502Z,15.21
2022-11-10T12:38:59.554Z,15.32
2022-11-10T12:41:59.164Z,15.33
2022-11-10T12:45:05.360Z,15.26
2022-11-10T12:47:52.635Z,15.34
2022-11-10T12:50:40.965Z,15.40
2022-11-10T12:53:29.450Z,15.32
2022-11-10T12:56:39.363Z,15.39
2022-11-10T12:59:31.854Z,15.44
2022-11-10T13:02:50.860Z,15.39
2022-11-10T13:05:41.903Z,15.33
2022-11-10T13:08:45.085Z,15.54
2022-11-10T13:11:34.155Z,15.69
2022-11-10T13:14:29.135Z,15.52
2022-11-10T13:17:26.215Z,15.51
2022-11-10T13:21:09.769Z,15.68
2022-11-10T13:23:59.371Z,15.79
2022-11-10T13:26:44.430Z,15.67
2022-11-10T13:29:34.882Z,15.57
2022-11-10T13:32:29.201Z,15.54
2022-11-10T13:35:29.597Z,15.52
2022-11-10T13:38:32.779Z,15.70
2022-11-10T13:41:17.894Z,15.84
2022-11-10T13:44:40.859Z,15.71
2022-11-10T13:47:42.717Z,15.86
2022-11-10T13:50:40.864Z,15.96
2022-11-10T13:54:03.905Z,15.89
2022-11-10T13:57:17.273Z,15.76
2022-11-10T14:00:27.691Z,15.74
2022-11-10T14:03:44.828Z,15.91
2022-11-10T14:06:45.566Z,15.81
2022-11-10T14:09:39.406Z,15.82
2022-11-10T14:12:27.249Z,15.87
2022-11-10T14:15:17.870Z,16.04
2022-11-10T14:18:03.630Z,16.02
2022-11-10T14:20:56.574Z,16.07
2022-11-10T14:23:53.200Z,16.15
2022-11-10T14:26:52.057Z,16.11
2022-11-10T14:29:39.174Z,15.99
2022-11-10T14:32:25.921Z,16.07
2022-11-10T14:35:21.114Z,15.88
2022-11-10T14:38:20.389Z,15.74
2022-11-10T14:41:13.660Z,15.75
2022-11-10T14:44:23.618Z,15.60
2022-11-10T14:47:28.723Z,15.51
2022-11-10T14:50:13.881Z,15.59
2022-11-10T14:53:23.053Z,15.62
2022-11-10T14:56:16.879Z,15.59
2022-11-10T14:59:04.558Z,15.52
2022-11-10T15:01:58.897Z,15.51
2022-11-10T15:04:46.306Z,15.54
2022-11-10T15:07:31.847Z,15.53
2022-11-10T15:10:26.490Z,15.33
2022-11-10T15:13:11.589Z,15.45
2022-11-10T15:16:23.187Z,15.41
2022-11-10T15:19:28.521Z,15.45
2022-11-10T15:22:19.891Z,15.53
2022-11-10T15:25:21.713Z,15.52
2022-11-10T15:28:12.549Z,15.52
2022-11-10T15:31:00.431Z,15.43
2022-11-10T15:33:48.277Z,15.34
2022-11-10T15:36:35.963Z,15.35
2022-11-10T15:39:26.530Z,15.47
2022-11-10T15:42:29.872Z,15.31
2022-11-10T15:45:14.957Z,15.21
2022-11-10T15:48:00.358Z,15.23
2022-11-10T15:50:49.129Z,15.25
2022-11-10T15:53:38.498Z,15.16
2022-11-10T15:56:24.723Z,15.14
2022-11-10T15:59:11.647Z,15.09
2022-11-10T16:01:57.001Z,15.05
2022-11-10T16:04:42.482Z,15.03
2022-11-10T16:07:27.860Z,15.08
2022-11-10T16:10:13.130Z,14.94
2022-11-10T16:12:58.588Z,14.85
2022-11-10T16:15:45.452Z,14.77
2022-11-10T16:18:31.134Z,14.80
2022-11-10T16:21:20.276Z,14.82
2022-11-10T16:24:05.976Z,14.73
2022-11-10T16:26:51.191Z,14.84
2022-11-10T16:29:37.393Z,14.95
2022-11-10T16:32:22.751Z,14.88
2022-11-10T16:35:14.879Z,14.74
2022-11-10T16:38:00.038Z,14.72
2022-11-10T16:40:50.567Z,14.74
2022-11-10T16:43:36.566Z,14.80
2022-11-10T16:46:23.618Z,14.83
2022-11-10T16:49:32.925Z,14.73
2022-11-10T16:52:19.323Z,14.83
2022-11-10T16:55:04.770Z,14.79
2022-11-10T16:57:50.272Z,14.81
2022-11-10T17:00:36.101Z,14.76
2022-11-10T17:03:29.444Z,14.84
2022-11-10T17:06:16.310Z,14.85
2022-11-10T17:09:08.471Z,14.93
2022-11-10T17:11:53.526Z,15.03
2022-11-10T17:14:38.658Z,15.05
2022-11-10T17:17:24.349Z,15.12
2022-11-10T17:20:17.082Z,15.10
2022-11-10T17:23:03.374Z,14.98
2022-11-10T17:25:50.723Z,15.03
2022-11-10T17:28:35.619Z,14.95
2022-11-10T17:31:20.710Z,14.88
2022-11-10T17:34:06.005Z,14.88
2022-11-10T17:36:52.502Z,14.79
2022-11-10T17:39:37.594Z,14.75
2022-11-10T17:42:22.612Z,14.82
2022-11-10T17:45:20.347Z,14.79
2022-11-10T17:48:06.449Z,14.82
2022-11-10T17:50:51.795Z,14.70
2022-11-10T17:53:37.211Z,14.47
2022-11-10T17:56:22.292Z,14.24
2022-11-10T17:59:07.368Z,14.24
2022-11-10T18:01:52.868Z,14.31
2022-11-10T18:04:38.546Z,14.29
2022-11-10T18:07:23.907Z,14.41
2022-11-10T18:10:13.994Z,14.45
2022-11-10T18:12:59.472Z,14.43
2022-11-10T18:15:46.894Z,14.46
2022-11-10T18:18:32.196Z,14.43
2022-11-10T18:21:17.341Z,14.42
2022-11-10T18:24:02.415Z,14.34
2022-11-10T18:26:48.074Z,14.50
2022-11-10T18:29:33.429Z,14.29
2022-11-10T18:32:18.590Z,14.34
2022-11-10T18:35:03.763Z,14.33
2022-11-10T18:37:48.829Z,14.28
2022-11-10T18:40:34.233Z,14.20
2022-11-10T18:43:19.774Z,14.31
2022-11-10T18:46:05.151Z,14.23
2022-11-10T18:48:50.193Z,14.23
2022-11-10T18:51:35.643Z,14.25
2022-11-10T18:54:20.993Z,14.24
2022-11-10T18:57:06.067Z,14.09
2022-11-10T18:59:51.548Z,14.03
2022-11-10T19:02:36.481Z,14.00
2022-11-10T19:05:21.645Z,14.05
2022-11-10T19:08:10.641Z,14.14
2022-11-10T19:10:56.042Z,14.19
2022-11-10T19:13:41.098Z,14.16
2022-11-10T19:16:26.413Z,14.21
2022-11-10T19:19:11.860Z,14.26
2022-11-10T19:21:57.007Z,14.10
2022-11-10T19:25:00.757Z,13.95
2022-11-10T19:27:47.863Z,14.04
2022-11-10T19:30:33.051Z,14.11
2022-11-10T19:33:18.161Z,14.04
2022-11-10T19:36:18.373Z,14.07
2022-11-10T19:39:03.824Z,14.04
2022-11-10T19:41:49.018Z,13.85
2022-11-10T19:44:34.767Z,13.82
2022-11-10T19:47:20.145Z,13.93
2022-11-10T19:50:05.879Z,14.05
2022-11-10T19:52:50.814Z,13.95
2022-11-10T19:55:36.762Z,13.91
2022-11-10T19:58:22.086Z,13.94
2022-11-10T20:01:08.743Z,13.91
2022-11-10T20:03:53.964Z,13.94
2022-11-10T20:06:39.317Z,13.86
2022-11-10T20:09:24.633Z,13.96
2022-11-10T20:12:10.298Z,13.99
2022-11-10T20:14:55.609Z,13.98
2022-11-10T20:17:41.155Z,13.91
2022-11-10T20:20:26.224Z,13.82
2022-11-10T20:23:11.795Z,13.83
2022-11-10T20:26:16.836Z,13.84
2022-11-10T20:29:02.078Z,13.80
2022-11-10T20:31:47.590Z,13.72
2022-11-10T20:34:32.775Z,13.77
2022-11-10T20:37:18.097Z,13.77
2022-11-10T20:40:07.490Z,13.49
2022-11-10T20:43:04.152Z,13.59
2022-11-10T20:45:52.332Z,13.45
2022-11-10T20:48:37.446Z,13.44
2022-11-10T20:51:22.562Z,13.37
2022-11-10T20:54:08.611Z,13.36
2022-11-10T20:56:53.928Z,13.36
2022-11-10T20:59:39.025Z,13.53
2022-11-10T21:02:23.994Z,13.43
2022-11-10T21:05:09.730Z,13.35
2022-11-10T21:07:55.038Z,13.42
2022-11-10T21:10:40.124Z,13.32
2022-11-10T21:13:26.607Z,13.32
2022-11-10T21:16:11.773Z,13.35
2022-11-10T21:18:57.452Z,13.33
2022-11-10T21:21:42.415Z,13.35
2022-11-10T21:24:30.514Z,13.36
2022-11-10T21:27:15.783Z,13.26
2022-11-10T21:30:00.808Z,13.31
2022-11-10T21:32:45.965Z,13.33
2022-11-10T21:35:35.326Z,13.52
2022-11-10T21:38:23.922Z,13.37
2022-11-10T21:41:08.877Z,13.38
2022-11-10T21:43:54.332Z,13.48
2022-11-10T21:46:39.746Z,13.49
2022-11-10T21:49:25.156Z,13.43
2022-11-10T21:52:10.219Z,13.47
2022-11-10T21:54:55.322Z,13.53
2022-11-10T21:57:41.108Z,13.38
2022-11-10T22:00:26.708Z,13.38
2022-11-10T22:03:11.883Z,13.29
2022-11-10T22:06:06.004Z,13.29
2022-11-10T22:08:51.286Z,13.37
2022-11-10T22:11:55.334Z,13.37
2022-11-10T22:14:59.222Z,13.39
2022-11-10T22:18:03.262Z,13.45
2022-11-10T22:20:48.745Z,13.41
2022-11-10T22:23:52.438Z,13.38
2022-11-10T22:26:37.979Z,13.32
2022-11-10T22:29:27.366Z,13.23
2022-11-10T22:32:16.193Z,13.27
2022-11-10T22:35:01.362Z,13.21
2022-11-10T22:37:46.378Z,13.27
2022-11-10T22:40:51.295Z,13.27
2022-11-10T22:43:55.130Z,13.26
2022-11-10T22:46:42.779Z,13.32
2022-11-10T22:49:28.005Z,13.34
2022-11-10T22:52:13.242Z,13.07
2022-11-10T22:54:58.628Z,12.98
2022-11-10T22:57:43.836Z,12.91
2022-11-10T23:00:28.892Z,12.90
2022-11-10T23:03:14.198Z,12.82
2022-11-10T23:05:59.655Z,12.73
2022-11-10T23:08:44.865Z,12.83
2022-11-10T23:11:32.436Z,12.80
2022-11-10T23:14:17.741Z,12.73
2022-11-10T23:17:03.156Z,12.86
2022-11-10T23:19:48.165Z,12.83
2022-11-10T23:22:33.502Z,12.90
2022-11-10T23:25:18.761Z,12.91
2022-11-10T23:28:04.396Z,12.83
2022-11-10T23:30:49.722Z,12.80
2022-11-10T23:33:36.390Z,12.66
2022-11-10T23:36:23.292Z,12.73
2022-11-10T23:39:08.264Z,12.83
2022-11-10T23:41:53.562Z,12.73
2022-11-10T23:44:38.612Z,12.66
2022-11-10T23:47:24.030Z,12.66
2022-11-10T23:50:09.827Z,12.69
2022-11-10T23:52:55.121Z,12.70
2022-11-10T23:55:41.321Z,12.67
2022-11-10T23:58:28.129Z,12.55
